Jackson, Pennsylvania
Current Conditions -  °F | °C
As of 3:53 AM on Saturday 29 Nov 2014 (Local Time) from KBGM Reporting Station
Broken Clouds Broken Clouds  
Wind Chill: 27°   Ceiling: 10000
Heat Index: 27°   Visibility: 10mi
Dew Point: 10°   Wind: 3mph
Humidity: 49%   Direction: 170°S
Pressure: 30.16"   Gusts: NA
Location:  41.83°N, 75.59°W
Report Text: KBGM 290853Z 17003KT 10SM BKN100 M03/M12 A3016 RMK AO2 SLP233 T10281122 50000
Loading
Personal Weather Stations






























Interactive Weather Map New forecast layout! Learn more

10-Day Weather Forecast

Advertisements
Track Severe Weather on mobile